sensor_id;sensor_type;location;lat;lon;timestamp;pressure;altitude;pressure_sealevel;temperature;humidity
6032;BME280;3044;43.232;27.972;2024-01-30T00:01:59;45262.34;;;-143.84;86.37
6032;BME280;3044;43.232;27.972;2024-01-30T00:04:26;45283.28;;;-143.84;86.68
6032;BME280;3044;43.232;27.972;2024-01-30T00:06:54;45269.97;;;-143.84;86.76
6032;BME280;3044;43.232;27.972;2024-01-30T00:09:21;45254.72;;;-143.84;86.69
6032;BME280;3044;43.232;27.972;2024-01-30T00:11:48;45241.41;;;-143.84;87.07
6032;BME280;3044;43.232;27.972;2024-01-30T00:14:16;45285.19;;;-143.84;86.99
6032;BME280;3044;43.232;27.972;2024-01-30T00:16:44;45266.16;;;-143.84;87.16
6032;BME280;3044;43.232;27.972;2024-01-30T00:19:11;45252.81;;;-143.84;87.57
6032;BME280;3044;43.232;27.972;2024-01-30T00:21:38;45290.91;;;-143.84;87.80
6032;BME280;3044;43.232;27.972;2024-01-30T00:24:07;45285.19;;;-143.84;87.29
6032;BME280;3044;43.232;27.972;2024-01-30T00:26:34;45256.63;;;-143.84;87.65
6032;BME280;3044;43.232;27.972;2024-01-30T00:29:01;45287.09;;;-143.84;87.88
6032;BME280;3044;43.232;27.972;2024-01-30T00:31:28;45269.97;;;-143.84;87.64
6032;BME280;3044;43.232;27.972;2024-01-30T00:33:56;45281.38;;;-143.84;88.07
6032;BME280;3044;43.232;27.972;2024-01-30T00:36:23;45262.34;;;-143.84;87.79
6032;BME280;3044;43.232;27.972;2024-01-30T00:38:50;45273.78;;;-143.84;88.30
6032;BME280;3044;43.232;27.972;2024-01-30T00:41:19;45279.47;;;-143.84;88.99
6032;BME280;3044;43.232;27.972;2024-01-30T00:43:46;45250.91;;;-143.84;89.09
6032;BME280;3044;43.232;27.972;2024-01-30T00:46:13;45273.78;;;-143.84;88.56
6032;BME280;3044;43.232;27.972;2024-01-30T00:48:40;45269.97;;;-143.84;89.13
6032;BME280;3044;43.232;27.972;2024-01-30T00:51:07;45289.00;;;-143.84;88.57
6032;BME280;3044;43.232;27.972;2024-01-30T00:53:34;45277.56;;;-143.84;88.58
6032;BME280;3044;43.232;27.972;2024-01-30T00:56:01;45260.44;;;-143.84;88.41
6032;BME280;3044;43.232;27.972;2024-01-30T00:58:30;45283.28;;;-143.84;89.04
6032;BME280;3044;43.232;27.972;2024-01-30T01:00:57;45264.25;;;-143.84;88.99
6032;BME280;3044;43.232;27.972;2024-01-30T01:03:24;45292.81;;;-143.84;89.18
6032;BME280;3044;43.232;27.972;2024-01-30T01:05:51;45289.00;;;-143.84;89.42
6032;BME280;3044;43.232;27.972;2024-01-30T01:08:19;45245.19;;;-143.84;88.92
6032;BME280;3044;43.232;27.972;2024-01-30T01:10:46;45283.28;;;-143.84;89.01
6032;BME280;3044;43.232;27.972;2024-01-30T01:13:13;45275.66;;;-143.84;89.05
6032;BME280;3044;43.232;27.972;2024-01-30T01:15:42;45260.44;;;-143.84;89.64
6032;BME280;3044;43.232;27.972;2024-01-30T01:18:09;45260.44;;;-143.84;89.38
6032;BME280;3044;43.232;27.972;2024-01-30T01:20:36;45281.38;;;-143.84;89.30
6032;BME280;3044;43.232;27.972;2024-01-30T01:23:03;45289.00;;;-143.84;89.94
6032;BME280;3044;43.232;27.972;2024-01-30T01:25:30;45275.66;;;-143.84;90.09
6032;BME280;3044;43.232;27.972;2024-01-30T01:27:58;45271.88;;;-143.84;89.58
6032;BME280;3044;43.232;27.972;2024-01-30T01:30:26;45277.56;;;-143.84;89.35
6032;BME280;3044;43.232;27.972;2024-01-30T01:32:56;45281.38;;;-143.84;89.47
6032;BME280;3044;43.232;27.972;2024-01-30T01:35:26;45262.34;;;-143.84;89.72
6032;BME280;3044;43.232;27.972;2024-01-30T01:37:54;45273.78;;;-143.84;89.75
6032;BME280;3044;43.232;27.972;2024-01-30T01:40:22;45264.25;;;-143.84;89.71
6032;BME280;3044;43.232;27.972;2024-01-30T01:42:50;45254.72;;;-143.84;89.60
6032;BME280;3044;43.232;27.972;2024-01-30T01:45:18;45281.38;;;-143.84;89.87
6032;BME280;3044;43.232;27.972;2024-01-30T01:47:47;45273.78;;;-143.84;89.38
6032;BME280;3044;43.232;27.972;2024-01-30T01:50:18;45273.78;;;-143.84;89.54
6032;BME280;3044;43.232;27.972;2024-01-30T01:52:46;45281.38;;;-143.84;89.35
6032;BME280;3044;43.232;27.972;2024-01-30T01:55:14;45264.25;;;-143.84;89.16
6032;BME280;3044;43.232;27.972;2024-01-30T01:57:43;45266.16;;;-143.84;89.20
6032;BME280;3044;43.232;27.972;2024-01-30T02:00:11;45241.41;;;-143.84;89.43
6032;BME280;3044;43.232;27.972;2024-01-30T02:02:39;45264.25;;;-143.84;89.10
6032;BME280;3044;43.232;27.972;2024-01-30T02:05:07;45254.72;;;-143.84;88.94
6032;BME280;3044;43.232;27.972;2024-01-30T02:07:36;45287.09;;;-143.84;89.39
6032;BME280;3044;43.232;27.972;2024-01-30T02:10:04;45264.25;;;-143.84;88.96
6032;BME280;3044;43.232;27.972;2024-01-30T02:12:31;45277.56;;;-143.84;89.53
6032;BME280;3044;43.232;27.972;2024-01-30T02:14:58;45252.81;;;-143.84;89.67
6032;BME280;3044;43.232;27.972;2024-01-30T02:17:25;45283.28;;;-143.84;89.48
6032;BME280;3044;43.232;27.972;2024-01-30T02:19:53;45250.91;;;-143.84;89.67
6032;BME280;3044;43.232;27.972;2024-01-30T02:22:21;45273.78;;;-143.84;89.27
6032;BME280;3044;43.232;27.972;2024-01-30T02:24:49;45283.28;;;-143.84;89.07
6032;BME280;3044;43.232;27.972;2024-01-30T02:27:16;45271.88;;;-143.84;89.24
6032;BME280;3044;43.232;27.972;2024-01-30T02:29:43;45289.00;;;-143.84;89.27
6032;BME280;3044;43.232;27.972;2024-01-30T02:32:10;45252.81;;;-143.84;89.64
6032;BME280;3044;43.232;27.972;2024-01-30T02:34:37;45281.38;;;-143.84;89.38
6032;BME280;3044;43.232;27.972;2024-01-30T02:37:04;45268.06;;;-143.84;89.34
6032;BME280;3044;43.232;27.972;2024-01-30T02:39:33;45260.44;;;-143.84;90.07
6032;BME280;3044;43.232;27.972;2024-01-30T02:42:00;45298.53;;;-143.84;89.79
6032;BME280;3044;43.232;27.972;2024-01-30T02:44:27;45239.50;;;-143.84;90.52
6032;BME280;3044;43.232;27.972;2024-01-30T02:46:54;45256.63;;;-143.84;89.97
6032;BME280;3044;43.232;27.972;2024-01-30T02:49:21;45308.03;;;-143.84;90.45
6032;BME280;3044;43.232;27.972;2024-01-30T02:51:48;45266.16;;;-143.84;90.15
6032;BME280;3044;43.232;27.972;2024-01-30T02:54:16;45292.81;;;-143.84;90.98
6032;BME280;3044;43.232;27.972;2024-01-30T02:56:44;45285.19;;;-143.84;90.36
6032;BME280;3044;43.232;27.972;2024-01-30T02:59:12;45279.47;;;-143.84;89.73
6032;BME280;3044;43.232;27.972;2024-01-30T03:01:45;45268.06;;;-143.84;89.86
6032;BME280;3044;43.232;27.972;2024-01-30T03:04:12;45285.19;;;-143.84;89.63
6032;BME280;3044;43.232;27.972;2024-01-30T03:06:44;45268.06;;;-143.84;89.31
6032;BME280;3044;43.232;27.972;2024-01-30T03:09:11;45256.63;;;-143.84;90.25
6032;BME280;3044;43.232;27.972;2024-01-30T03:11:39;45262.34;;;-143.84;89.87
6032;BME280;3044;43.232;27.972;2024-01-30T03:14:07;45273.78;;;-143.84;90.29
6032;BME280;3044;43.232;27.972;2024-01-30T03:16:36;45254.72;;;-143.84;90.13
6032;BME280;3044;43.232;27.972;2024-01-30T03:19:05;45273.78;;;-143.84;90.39
6032;BME280;3044;43.232;27.972;2024-01-30T03:21:33;45273.78;;;-143.84;91.08
6032;BME280;3044;43.232;27.972;2024-01-30T03:24:00;45258.53;;;-143.84;91.43
6032;BME280;3044;43.232;27.972;2024-01-30T03:26:27;45277.56;;;-143.84;91.43
6032;BME280;3044;43.232;27.972;2024-01-30T03:28:54;45281.38;;;-143.84;92.06
6032;BME280;3044;43.232;27.972;2024-01-30T03:31:22;45264.25;;;-143.84;92.13
6032;BME280;3044;43.232;27.972;2024-01-30T03:33:49;45277.56;;;-143.84;92.42
6032;BME280;3044;43.232;27.972;2024-01-30T03:36:17;45275.66;;;-143.84;92.16
6032;BME280;3044;43.232;27.972;2024-01-30T03:38:44;45285.19;;;-143.84;92.31
6032;BME280;3044;43.232;27.972;2024-01-30T03:41:11;45279.47;;;-143.84;91.78
6032;BME280;3044;43.232;27.972;2024-01-30T03:43:38;45279.47;;;-143.84;91.94
6032;BME280;3044;43.232;27.972;2024-01-30T03:46:05;45277.56;;;-143.84;91.31
6032;BME280;3044;43.232;27.972;2024-01-30T03:48:34;45256.63;;;-143.84;90.74
6032;BME280;3044;43.232;27.972;2024-01-30T03:51:01;45269.97;;;-143.84;90.55
6032;BME280;3044;43.232;27.972;2024-01-30T03:53:28;45273.78;;;-143.84;91.03
6032;BME280;3044;43.232;27.972;2024-01-30T03:55:55;45260.44;;;-143.84;90.98
6032;BME280;3044;43.232;27.972;2024-01-30T03:58:22;45285.19;;;-143.84;91.60
6032;BME280;3044;43.232;27.972;2024-01-30T04:00:49;45292.81;;;-143.84;91.13
6032;BME280;3044;43.232;27.972;2024-01-30T04:03:16;45262.34;;;-143.84;91.00
6032;BME280;3044;43.232;27.972;2024-01-30T04:05:45;45266.16;;;-143.84;91.65
6032;BME280;3044;43.232;27.972;2024-01-30T04:08:12;45311.84;;;-143.84;91.04
6032;BME280;3044;43.232;27.972;2024-01-30T04:10:40;45258.53;;;-143.84;90.88
6032;BME280;3044;43.232;27.972;2024-01-30T04:13:07;45258.53;;;-143.84;90.78
6032;BME280;3044;43.232;27.972;2024-01-30T04:15:34;45260.44;;;-143.84;90.89
6032;BME280;3044;43.232;27.972;2024-01-30T04:18:02;45262.34;;;-143.84;90.37
6032;BME280;3044;43.232;27.972;2024-01-30T04:20:29;45260.44;;;-143.84;90.41
6032;BME280;3044;43.232;27.972;2024-01-30T04:22:58;45277.56;;;-143.84;90.46
6032;BME280;3044;43.232;27.972;2024-01-30T04:25:25;45254.72;;;-143.84;91.07
6032;BME280;3044;43.232;27.972;2024-01-30T04:27:52;45289.00;;;-143.84;90.30
6032;BME280;3044;43.232;27.972;2024-01-30T04:30:19;45269.97;;;-143.84;90.48
6032;BME280;3044;43.232;27.972;2024-01-30T04:32:46;45269.97;;;-143.84;90.38
6032;BME280;3044;43.232;27.972;2024-01-30T04:35:13;45289.00;;;-143.84;90.22
6032;BME280;3044;43.232;27.972;2024-01-30T04:37:40;45273.78;;;-143.84;90.18
6032;BME280;3044;43.232;27.972;2024-01-30T04:40:09;45275.66;;;-143.84;90.72
6032;BME280;3044;43.232;27.972;2024-01-30T04:42:37;45277.56;;;-143.84;90.28
6032;BME280;3044;43.232;27.972;2024-01-30T04:45:05;45264.25;;;-143.84;89.64
6032;BME280;3044;43.232;27.972;2024-01-30T04:47:32;45239.50;;;-143.84;89.87
6032;BME280;3044;43.232;27.972;2024-01-30T04:50:01;45252.81;;;-143.84;89.52
6032;BME280;3044;43.232;27.972;2024-01-30T04:52:30;45268.06;;;-143.84;89.70
6032;BME280;3044;43.232;27.972;2024-01-30T04:54:57;45229.97;;;-143.84;89.65
6032;BME280;3044;43.232;27.972;2024-01-30T04:57:26;45262.34;;;-143.84;89.53
6032;BME280;3044;43.232;27.972;2024-01-30T04:59:53;45271.88;;;-143.84;89.39
6032;BME280;3044;43.232;27.972;2024-01-30T05:02:20;45245.19;;;-143.84;88.92
6032;BME280;3044;43.232;27.972;2024-01-30T05:04:47;45285.19;;;-143.84;89.28
6032;BME280;3044;43.232;27.972;2024-01-30T05:07:14;45269.97;;;-143.84;88.62
6032;BME280;3044;43.232;27.972;2024-01-30T05:09:41;45269.97;;;-143.84;88.36
6032;BME280;3044;43.232;27.972;2024-01-30T05:12:08;45281.38;;;-143.84;88.96
6032;BME280;3044;43.232;27.972;2024-01-30T05:14:37;45256.63;;;-143.84;88.38
6032;BME280;3044;43.232;27.972;2024-01-30T05:17:04;45266.16;;;-143.84;88.35
6032;BME280;3044;43.232;27.972;2024-01-30T05:19:31;45258.53;;;-143.84;88.65
6032;BME280;3044;43.232;27.972;2024-01-30T05:21:58;45264.25;;;-143.84;88.46
6032;BME280;3044;43.232;27.972;2024-01-30T05:24:25;45252.81;;;-143.84;88.21
6032;BME280;3044;43.232;27.972;2024-01-30T05:26:52;45289.00;;;-143.84;88.25
6032;BME280;3044;43.232;27.972;2024-01-30T05:29:19;45273.78;;;-143.84;88.89
6032;BME280;3044;43.232;27.972;2024-01-30T05:31:48;45262.34;;;-143.84;88.13
6032;BME280;3044;43.232;27.972;2024-01-30T05:34:16;45254.72;;;-143.84;88.51
6032;BME280;3044;43.232;27.972;2024-01-30T05:36:43;45283.28;;;-143.84;88.08
6032;BME280;3044;43.232;27.972;2024-01-30T05:39:10;45256.63;;;-143.84;88.22
6032;BME280;3044;43.232;27.972;2024-01-30T05:41:37;45237.59;;;-143.84;88.26
6032;BME280;3044;43.232;27.972;2024-01-30T05:44:04;45283.28;;;-143.84;88.44
6032;BME280;3044;43.232;27.972;2024-01-30T05:46:31;45262.34;;;-143.84;88.73
6032;BME280;3044;43.232;27.972;2024-01-30T05:49:00;45269.97;;;-143.84;89.01
6032;BME280;3044;43.232;27.972;2024-01-30T05:51:27;45279.47;;;-143.84;88.87
6032;BME280;3044;43.232;27.972;2024-01-30T05:53:55;45275.66;;;-143.84;88.44
6032;BME280;3044;43.232;27.972;2024-01-30T05:56:22;45264.25;;;-143.84;88.48
6032;BME280;3044;43.232;27.972;2024-01-30T05:58:49;45273.78;;;-143.84;88.29
6032;BME280;3044;43.232;27.972;2024-01-30T06:01:17;45273.78;;;-143.84;88.80
6032;BME280;3044;43.232;27.972;2024-01-30T06:03:44;45247.09;;;-143.84;88.12
6032;BME280;3044;43.232;27.972;2024-01-30T06:06:12;45281.38;;;-143.84;88.36
6032;BME280;3044;43.232;27.972;2024-01-30T06:08:39;45275.66;;;-143.84;87.90
6032;BME280;3044;43.232;27.972;2024-01-30T06:11:10;45258.53;;;-143.84;88.43
6032;BME280;3044;43.232;27.972;2024-01-30T06:13:37;45296.63;;;-143.84;88.68
6032;BME280;3044;43.232;27.972;2024-01-30T06:16:04;45290.91;;;-143.84;88.96
6032;BME280;3044;43.232;27.972;2024-01-30T06:18:32;45264.25;;;-143.84;88.90
6032;BME280;3044;43.232;27.972;2024-01-30T06:20:59;45287.09;;;-143.84;88.62
6032;BME280;3044;43.232;27.972;2024-01-30T06:23:27;45273.78;;;-143.84;88.39
6032;BME280;3044;43.232;27.972;2024-01-30T06:25:55;45254.72;;;-143.84;89.28
6032;BME280;3044;43.232;27.972;2024-01-30T06:28:22;45289.00;;;-143.84;89.41
6032;BME280;3044;43.232;27.972;2024-01-30T06:30:49;45269.97;;;-143.84;89.12
6032;BME280;3044;43.232;27.972;2024-01-30T06:33:16;45264.25;;;-143.84;88.72
6032;BME280;3044;43.232;27.972;2024-01-30T06:35:43;45277.56;;;-143.84;89.24
6032;BME280;3044;43.232;27.972;2024-01-30T06:38:11;45268.06;;;-143.84;88.39
6032;BME280;3044;43.232;27.972;2024-01-30T06:40:40;45275.66;;;-143.84;88.94
6032;BME280;3044;43.232;27.972;2024-01-30T06:43:07;45266.16;;;-143.84;88.87
6032;BME280;3044;43.232;27.972;2024-01-30T06:45:35;45260.44;;;-143.84;89.06
6032;BME280;3044;43.232;27.972;2024-01-30T06:48:03;45245.19;;;-143.84;89.41
6032;BME280;3044;43.232;27.972;2024-01-30T06:50:30;45287.09;;;-143.84;89.50
6032;BME280;3044;43.232;27.972;2024-01-30T06:52:57;45290.91;;;-143.84;89.78
6032;BME280;3044;43.232;27.972;2024-01-30T06:55:24;45281.38;;;-143.84;90.68
6032;BME280;3044;43.232;27.972;2024-01-30T06:57:53;45254.72;;;-143.84;90.15
6032;BME280;3044;43.232;27.972;2024-01-30T07:00:20;45239.50;;;-143.84;90.15
6032;BME280;3044;43.232;27.972;2024-01-30T07:02:48;45252.81;;;-143.84;89.84
6032;BME280;3044;43.232;27.972;2024-01-30T07:05:15;45247.09;;;-143.84;90.55
6032;BME280;3044;43.232;27.972;2024-01-30T07:07:43;45231.88;;;-143.84;90.48
6032;BME280;3044;43.232;27.972;2024-01-30T07:10:10;45279.47;;;-143.84;91.17
6032;BME280;3044;43.232;27.972;2024-01-30T07:12:37;45269.97;;;-143.84;90.77
6032;BME280;3044;43.232;27.972;2024-01-30T07:15:06;45269.97;;;-143.84;90.82
6032;BME280;3044;43.232;27.972;2024-01-30T07:17:34;45273.78;;;-143.84;90.03
6032;BME280;3044;43.232;27.972;2024-01-30T07:20:02;45269.97;;;-143.84;90.02
6032;BME280;3044;43.232;27.972;2024-01-30T07:22:30;45271.88;;;-143.84;89.57
6032;BME280;3044;43.232;27.972;2024-01-30T07:24:57;45273.78;;;-143.84;89.53
6032;BME280;3044;43.232;27.972;2024-01-30T07:27:24;45275.66;;;-143.84;88.96
6032;BME280;3044;43.232;27.972;2024-01-30T07:29:51;45268.06;;;-143.84;89.11
6032;BME280;3044;43.232;27.972;2024-01-30T07:32:20;45250.91;;;-143.84;88.63
6032;BME280;3044;43.232;27.972;2024-01-30T07:34:47;45266.16;;;-143.84;88.21
6032;BME280;3044;43.232;27.972;2024-01-30T07:37:14;45283.28;;;-143.84;88.04
6032;BME280;3044;43.232;27.972;2024-01-30T07:39:42;45262.34;;;-143.84;87.76
6032;BME280;3044;43.232;27.972;2024-01-30T07:42:09;45271.88;;;-143.84;87.73
6032;BME280;3044;43.232;27.972;2024-01-30T07:44:36;45277.56;;;-143.84;87.55
6032;BME280;3044;43.232;27.972;2024-01-30T07:47:04;45281.38;;;-143.84;86.61
6032;BME280;3044;43.232;27.972;2024-01-30T07:49:35;45275.66;;;-143.84;85.88
6032;BME280;3044;43.232;27.972;2024-01-30T07:52:04;45256.63;;;-143.84;85.33
6032;BME280;3044;43.232;27.972;2024-01-30T07:54:32;45277.56;;;-143.84;85.58
6032;BME280;3044;43.232;27.972;2024-01-30T07:57:00;45258.53;;;-143.84;85.51
6032;BME280;3044;43.232;27.972;2024-01-30T07:59:27;45241.41;;;-143.84;84.67
6032;BME280;3044;43.232;27.972;2024-01-30T08:01:54;45290.91;;;-143.84;84.48
6032;BME280;3044;43.232;27.972;2024-01-30T08:04:22;45256.63;;;-143.84;84.42
6032;BME280;3044;43.232;27.972;2024-01-30T08:06:50;45268.06;;;-143.84;83.78
6032;BME280;3044;43.232;27.972;2024-01-30T08:09:17;45250.91;;;-143.84;83.02
6032;BME280;3044;43.232;27.972;2024-01-30T08:11:44;45252.81;;;-143.84;82.70
6032;BME280;3044;43.232;27.972;2024-01-30T08:14:12;45256.63;;;-143.84;81.58
6032;BME280;3044;43.232;27.972;2024-01-30T08:16:39;45258.53;;;-143.84;81.61
6032;BME280;3044;43.232;27.972;2024-01-30T08:19:06;45241.41;;;-143.84;82.07
6032;BME280;3044;43.232;27.972;2024-01-30T08:21:33;45241.41;;;-143.84;82.23
6032;BME280;3044;43.232;27.972;2024-01-30T08:24:04;45231.88;;;-143.84;82.03
6032;BME280;3044;43.232;27.972;2024-01-30T08:26:32;45247.09;;;-143.84;81.24
6032;BME280;3044;43.232;27.972;2024-01-30T08:28:59;45233.78;;;-143.84;80.56
6032;BME280;3044;43.232;27.972;2024-01-30T08:31:26;45254.72;;;-143.84;80.67
6032;BME280;3044;43.232;27.972;2024-01-30T08:33:53;45292.81;;;-143.84;80.92
6032;BME280;3044;43.232;27.972;2024-01-30T08:36:20;45249.00;;;-143.84;80.40
6032;BME280;3044;43.232;27.972;2024-01-30T08:38:48;45256.63;;;-143.84;80.13
6032;BME280;3044;43.232;27.972;2024-01-30T08:41:16;45229.97;;;-143.84;80.41
6032;BME280;3044;43.232;27.972;2024-01-30T08:43:43;45229.97;;;-143.84;80.39
6032;BME280;3044;43.232;27.972;2024-01-30T08:46:11;45260.44;;;-143.84;80.33
6032;BME280;3044;43.232;27.972;2024-01-30T08:48:38;45271.88;;;-143.84;81.02
6032;BME280;3044;43.232;27.972;2024-01-30T08:51:05;45268.06;;;-143.84;80.40
6032;BME280;3044;43.232;27.972;2024-01-30T08:53:34;45249.00;;;-143.84;80.92
6032;BME280;3044;43.232;27.972;2024-01-30T08:56:02;45249.00;;;-143.84;81.01
6032;BME280;3044;43.232;27.972;2024-01-30T08:58:31;45247.09;;;-143.84;80.63
6032;BME280;3044;43.232;27.972;2024-01-30T09:00:59;45231.88;;;-143.84;80.46
6032;BME280;3044;43.232;27.972;2024-01-30T09:03:26;45229.97;;;-143.84;80.55
6032;BME280;3044;43.232;27.972;2024-01-30T09:05:53;45262.34;;;-143.84;79.91
6032;BME280;3044;43.232;27.972;2024-01-30T09:08:20;45231.88;;;-143.84;78.95
6032;BME280;3044;43.232;27.972;2024-01-30T09:10:47;45224.25;;;-143.84;79.23
6032;BME280;3044;43.232;27.972;2024-01-30T09:13:15;45243.31;;;-143.84;78.92
6032;BME280;3044;43.232;27.972;2024-01-30T09:15:43;45258.53;;;-143.84;78.34
6032;BME280;3044;43.232;27.972;2024-01-30T09:18:11;45254.72;;;-143.84;77.63
6032;BME280;3044;43.232;27.972;2024-01-30T09:20:38;45235.69;;;-143.84;77.72
6032;BME280;3044;43.232;27.972;2024-01-30T09:23:05;45231.88;;;-143.84;76.82
6032;BME280;3044;43.232;27.972;2024-01-30T09:25:32;45250.91;;;-143.84;76.94
6032;BME280;3044;43.232;27.972;2024-01-30T09:27:59;45228.06;;;-143.84;77.77
6032;BME280;3044;43.232;27.972;2024-01-30T09:30:27;45231.88;;;-143.84;77.60
6032;BME280;3044;43.232;27.972;2024-01-30T09:32:55;45247.09;;;-143.84;77.66
6032;BME280;3044;43.232;27.972;2024-01-30T09:35:22;45247.09;;;-143.84;77.09
6032;BME280;3044;43.232;27.972;2024-01-30T09:37:49;45239.50;;;-143.84;76.00
6032;BME280;3044;43.232;27.972;2024-01-30T09:40:17;45231.88;;;-143.84;75.86
6032;BME280;3044;43.232;27.972;2024-01-30T09:42:46;45332.81;;;-143.84;75.34
6032;BME280;3044;43.232;27.972;2024-01-30T09:45:14;45228.06;;;-143.84;75.51
6032;BME280;3044;43.232;27.972;2024-01-30T09:47:42;45233.78;;;-143.84;75.55
6032;BME280;3044;43.232;27.972;2024-01-30T09:50:11;45228.06;;;-143.84;75.75
6032;BME280;3044;43.232;27.972;2024-01-30T09:52:39;45243.31;;;-143.84;75.89
6032;BME280;3044;43.232;27.972;2024-01-30T09:55:07;45243.31;;;-143.84;75.64
6032;BME280;3044;43.232;27.972;2024-01-30T09:57:35;45254.72;;;-143.84;76.18
6032;BME280;3044;43.232;27.972;2024-01-30T10:00:03;45231.88;;;-143.84;75.76
6032;BME280;3044;43.232;27.972;2024-01-30T10:02:31;45228.06;;;-143.84;75.55
6032;BME280;3044;43.232;27.972;2024-01-30T10:04:59;45218.53;;;-143.84;76.01
6032;BME280;3044;43.232;27.972;2024-01-30T10:07:28;45231.88;;;-143.84;74.33
6032;BME280;3044;43.232;27.972;2024-01-30T10:09:59;45239.50;;;-143.84;73.76
6032;BME280;3044;43.232;27.972;2024-01-30T10:12:26;45241.41;;;-143.84;74.04
6032;BME280;3044;43.232;27.972;2024-01-30T10:14:56;45252.81;;;-143.84;74.08
6032;BME280;3044;43.232;27.972;2024-01-30T10:17:25;45243.31;;;-143.84;73.97
6032;BME280;3044;43.232;27.972;2024-01-30T10:19:53;45228.06;;;-143.84;74.08
6032;BME280;3044;43.232;27.972;2024-01-30T10:22:20;45241.41;;;-143.84;72.61
6032;BME280;3044;43.232;27.972;2024-01-30T10:24:49;45262.34;;;-143.84;72.50
6032;BME280;3044;43.232;27.972;2024-01-30T10:27:16;45229.97;;;-143.84;73.06
6032;BME280;3044;43.232;27.972;2024-01-30T10:29:43;45239.50;;;-143.84;73.22
6032;BME280;3044;43.232;27.972;2024-01-30T10:32:10;45241.41;;;-143.84;73.78
6032;BME280;3044;43.232;27.972;2024-01-30T10:34:37;45228.06;;;-143.84;74.43
6032;BME280;3044;43.232;27.972;2024-01-30T10:37:08;45237.59;;;-143.84;74.45
6032;BME280;3044;43.232;27.972;2024-01-30T10:39:39;45224.25;;;-143.84;74.03
6032;BME280;3044;43.232;27.972;2024-01-30T10:42:11;45243.31;;;-143.84;74.02
6032;BME280;3044;43.232;27.972;2024-01-30T10:44:48;45235.69;;;-143.84;73.90
6032;BME280;3044;43.232;27.972;2024-01-30T10:47:26;45262.34;;;-143.84;73.25
6032;BME280;3044;43.232;27.972;2024-01-30T10:49:54;45226.16;;;-143.84;73.15
6032;BME280;3044;43.232;27.972;2024-01-30T10:52:24;45249.00;;;-143.84;72.06
6032;BME280;3044;43.232;27.972;2024-01-30T10:54:53;45216.63;;;-143.84;71.91
6032;BME280;3044;43.232;27.972;2024-01-30T10:57:23;45228.06;;;-143.84;71.88
6032;BME280;3044;43.232;27.972;2024-01-30T10:59:53;45241.41;;;-143.84;71.65
6032;BME280;3044;43.232;27.972;2024-01-30T11:02:23;45247.09;;;-143.84;71.51
6032;BME280;3044;43.232;27.972;2024-01-30T11:04:57;45241.41;;;-143.84;71.34
6032;BME280;3044;43.232;27.972;2024-01-30T11:07:25;45231.88;;;-143.84;71.14
6032;BME280;3044;43.232;27.972;2024-01-30T11:09:53;45226.16;;;-143.84;71.14
6032;BME280;3044;43.232;27.972;2024-01-30T11:12:26;45239.50;;;-143.84;71.39
6032;BME280;3044;43.232;27.972;2024-01-30T11:15:05;45224.25;;;-143.84;70.79
6032;BME280;3044;43.232;27.972;2024-01-30T11:17:43;45216.63;;;-143.84;70.29
6032;BME280;3044;43.232;27.972;2024-01-30T11:20:11;45228.06;;;-143.84;70.10
6032;BME280;3044;43.232;27.972;2024-01-30T11:22:42;45233.78;;;-143.84;70.62
6032;BME280;3044;43.232;27.972;2024-01-30T11:25:13;45241.41;;;-143.84;69.54
6032;BME280;3044;43.232;27.972;2024-01-30T11:27:42;45231.88;;;-143.84;68.70
6032;BME280;3044;43.232;27.972;2024-01-30T11:30:10;45231.88;;;-143.84;67.84
6032;BME280;3044;43.232;27.972;2024-01-30T11:32:38;45220.44;;;-143.84;67.15
6032;BME280;3044;43.232;27.972;2024-01-30T11:35:05;45228.06;;;-143.84;67.53
6032;BME280;3044;43.232;27.972;2024-01-30T11:37:37;45207.13;;;-143.84;68.18
6032;BME280;3044;43.232;27.972;2024-01-30T11:40:06;45237.59;;;-143.84;68.65
6032;BME280;3044;43.232;27.972;2024-01-30T11:42:34;45243.31;;;-143.84;67.81
6032;BME280;3044;43.232;27.972;2024-01-30T11:45:07;45212.84;;;-143.84;66.11
6032;BME280;3044;43.232;27.972;2024-01-30T11:47:35;45210.94;;;-143.84;66.30
6032;BME280;3044;43.232;27.972;2024-01-30T11:50:03;45239.50;;;-143.84;67.11
6032;BME280;3044;43.232;27.972;2024-01-30T11:52:32;45214.72;;;-143.84;68.38
6032;BME280;3044;43.232;27.972;2024-01-30T11:55:00;45212.84;;;-143.84;67.74
6032;BME280;3044;43.232;27.972;2024-01-30T11:57:28;45231.88;;;-143.84;68.01
6032;BME280;3044;43.232;27.972;2024-01-30T11:59:55;45247.09;;;-143.84;66.90
6032;BME280;3044;43.232;27.972;2024-01-30T12:02:24;45228.06;;;-143.84;67.16
6032;BME280;3044;43.232;27.972;2024-01-30T12:04:51;45205.22;;;-143.84;66.99
6032;BME280;3044;43.232;27.972;2024-01-30T12:07:18;45233.78;;;-143.84;66.80
6032;BME280;3044;43.232;27.972;2024-01-30T12:09:52;45249.00;;;-143.84;66.90
6032;BME280;3044;43.232;27.972;2024-01-30T12:12:21;45224.25;;;-143.84;67.35
6032;BME280;3044;43.232;27.972;2024-01-30T12:14:49;45247.09;;;-143.84;66.66
6032;BME280;3044;43.232;27.972;2024-01-30T12:17:26;45228.06;;;-143.84;66.65
6032;BME280;3044;43.232;27.972;2024-01-30T12:20:03;45207.13;;;-143.84;66.89
6032;BME280;3044;43.232;27.972;2024-01-30T12:22:30;45233.78;;;-143.84;67.40
6032;BME280;3044;43.232;27.972;2024-01-30T12:24:57;45247.09;;;-143.84;67.38
6032;BME280;3044;43.232;27.972;2024-01-30T12:27:25;45197.59;;;-143.84;67.62
6032;BME280;3044;43.232;27.972;2024-01-30T12:29:56;45249.00;;;-143.84;67.61
6032;BME280;3044;43.232;27.972;2024-01-30T12:32:25;45231.88;;;-143.84;67.68
6032;BME280;3044;43.232;27.972;2024-01-30T12:34:55;45228.06;;;-143.84;68.00
6032;BME280;3044;43.232;27.972;2024-01-30T12:37:22;45250.91;;;-143.84;67.60
6032;BME280;3044;43.232;27.972;2024-01-30T12:39:51;45228.06;;;-143.84;67.17
6032;BME280;3044;43.232;27.972;2024-01-30T12:42:20;45264.25;;;-143.84;66.61
6032;BME280;3044;43.232;27.972;2024-01-30T12:44:48;45224.25;;;-143.84;66.88
6032;BME280;3044;43.232;27.972;2024-01-30T12:47:15;45224.25;;;-143.84;66.75
6032;BME280;3044;43.232;27.972;2024-01-30T12:49:44;45212.84;;;-143.84;66.98
6032;BME280;3044;43.232;27.972;2024-01-30T12:52:12;45233.78;;;-143.84;66.29
6032;BME280;3044;43.232;27.972;2024-01-30T12:54:40;45231.88;;;-143.84;66.10